createdAt,value
2019-06-20T00:01:20.150Z,16.93
2019-06-20T00:03:48.601Z,18.20
2019-06-20T00:06:17.122Z,19.40
2019-06-20T00:08:45.579Z,17.95
2019-06-20T00:11:14.033Z,18.62
2019-06-20T00:13:42.475Z,18.30
2019-06-20T00:16:10.921Z,19.40
2019-06-20T00:18:39.389Z,18.75
2019-06-20T00:21:07.839Z,18.17
2019-06-20T00:23:36.297Z,19.23
2019-06-20T00:26:04.740Z,19.98
2019-06-20T00:28:33.184Z,19.80
2019-06-20T00:31:02.015Z,20.60
2019-06-20T00:33:30.460Z,21.02
2019-06-20T00:35:59.153Z,21.60
2019-06-20T00:38:27.591Z,21.68
2019-06-20T00:40:56.526Z,23.70
2019-06-20T00:43:24.956Z,24.92
2019-06-20T00:45:53.399Z,23.73
2019-06-20T00:48:21.859Z,25.57
2019-06-20T00:50:50.295Z,24.00
2019-06-20T00:53:19.175Z,25.77
2019-06-20T00:55:47.669Z,26.15
2019-06-20T00:58:16.133Z,25.90
2019-06-20T01:00:44.585Z,28.75
2019-06-20T01:03:13.027Z,28.73
2019-06-20T01:05:41.481Z,28.50
2019-06-20T01:08:10.016Z,28.20
2019-06-20T01:10:38.481Z,30.43
2019-06-20T01:13:06.927Z,28.98
2019-06-20T01:15:35.452Z,29.50
2019-06-20T01:18:03.982Z,29.85
2019-06-20T01:20:32.430Z,28.10
2019-06-20T01:23:00.903Z,30.70
2019-06-20T01:25:40.646Z,29.92
2019-06-20T01:28:09.222Z,29.02
2019-06-20T01:30:37.804Z,27.37
2019-06-20T01:33:06.635Z,26.87
2019-06-20T01:35:35.222Z,27.95
2019-06-20T01:38:05.229Z,27.20
2019-06-20T01:40:33.663Z,25.77
2019-06-20T01:43:02.559Z,25.15
2019-06-20T01:45:31.002Z,26.93
2019-06-20T01:47:59.551Z,24.65
2019-06-20T01:50:28.004Z,26.12
2019-06-20T01:52:56.448Z,25.82
2019-06-20T01:55:24.916Z,25.02
2019-06-20T01:57:53.347Z,26.33
2019-06-20T02:00:30.976Z,26.97
2019-06-20T02:02:59.446Z,27.75
2019-06-20T02:05:27.954Z,28.87
2019-06-20T02:08:15.323Z,28.17
2019-06-20T02:10:43.770Z,28.50
2019-06-20T02:13:18.298Z,28.45
2019-06-20T02:15:46.751Z,29.37
2019-06-20T02:18:15.358Z,31.60
2019-06-20T02:20:53.332Z,31.48
2019-06-20T02:23:23.412Z,31.62
2019-06-20T02:25:52.309Z,30.80
2019-06-20T02:28:21.774Z,33.02
2019-06-20T02:30:59.493Z,31.87
2019-06-20T02:33:27.945Z,32.60
2019-06-20T02:35:56.406Z,33.75
2019-06-20T02:38:24.861Z,32.70
2019-06-20T02:40:55.012Z,33.23
2019-06-20T02:43:23.855Z,33.30
2019-06-20T02:45:52.445Z,33.95
2019-06-20T02:48:22.905Z,34.98
2019-06-20T02:50:51.121Z,34.95
2019-06-20T02:53:19.571Z,34.83
2019-06-20T02:55:48.030Z,35.48
2019-06-20T02:58:16.489Z,33.18
2019-06-20T03:00:50.991Z,32.40
2019-06-20T03:03:19.450Z,32.90
2019-06-20T03:05:47.900Z,30.75
2019-06-20T03:08:16.356Z,32.08
2019-06-20T03:10:44.823Z,32.63
2019-06-20T03:13:13.362Z,34.90
2019-06-20T03:15:41.840Z,35.30
2019-06-20T03:18:10.305Z,34.05
2019-06-20T03:20:38.738Z,33.88
2019-06-20T03:23:07.197Z,31.68
2019-06-20T03:25:35.730Z,32.83
2019-06-20T03:28:04.235Z,32.60
2019-06-20T03:30:32.771Z,33.15
2019-06-20T03:33:01.239Z,33.48
2019-06-20T03:35:29.752Z,34.55
2019-06-20T03:37:59.746Z,35.58
2019-06-20T03:40:28.270Z,32.65
2019-06-20T03:42:56.712Z,35.68
2019-06-20T03:45:25.168Z,34.43
2019-06-20T03:47:53.619Z,35.52
2019-06-20T03:50:22.110Z,35.50
2019-06-20T03:52:53.776Z,35.50
2019-06-20T03:55:22.278Z,34.48
2019-06-20T03:57:50.736Z,35.60
2019-06-20T04:00:22.175Z,35.68
2019-06-20T04:02:50.642Z,34.30
2019-06-20T04:05:19.093Z,35.98
2019-06-20T04:07:47.603Z,35.55
2019-06-20T04:10:19.040Z,35.88
2019-06-20T04:12:47.487Z,33.90
2019-06-20T04:15:19.465Z,36.70
2019-06-20T04:17:46.166Z,36.13
2019-06-20T04:20:14.825Z,37.30
2019-06-20T04:22:44.578Z,37.08
2019-06-20T04:25:13.124Z,37.67
2019-06-20T04:27:41.731Z,34.20
2019-06-20T04:30:10.371Z,34.65
2019-06-20T04:32:38.940Z,35.03
2019-06-20T04:35:07.598Z,33.55
2019-06-20T04:37:36.048Z,36.08
2019-06-20T04:40:06.172Z,32.13
2019-06-20T04:42:35.182Z,32.35
2019-06-20T04:45:06.336Z,32.70
2019-06-20T04:47:34.792Z,35.30
2019-06-20T04:50:04.432Z,33.30
2019-06-20T04:52:32.945Z,32.10
2019-06-20T04:55:03.530Z,32.17
2019-06-20T04:57:32.032Z,32.65
2019-06-20T05:00:03.040Z,32.60
2019-06-20T05:02:34.407Z,30.55
2019-06-20T05:05:04.977Z,30.97
2019-06-20T05:07:33.547Z,29.50
2019-06-20T05:10:02.126Z,30.17
2019-06-20T05:12:30.668Z,28.95
2019-06-20T05:14:59.183Z,30.23
2019-06-20T05:17:27.724Z,29.65
2019-06-20T05:19:58.860Z,29.98
2019-06-20T05:22:27.369Z,28.23
2019-06-20T05:24:55.823Z,27.62
2019-06-20T05:27:24.267Z,27.85
2019-06-20T05:29:52.786Z,26.20
2019-06-20T05:32:21.236Z,26.60
2019-06-20T05:34:49.710Z,25.90
2019-06-20T05:37:18.215Z,25.48
2019-06-20T05:39:46.668Z,25.60
2019-06-20T05:42:15.463Z,25.20
2019-06-20T05:44:43.908Z,24.52
2019-06-20T05:47:14.047Z,24.85
2019-06-20T05:49:42.683Z,25.15
2019-06-20T05:52:11.144Z,24.02
2019-06-20T05:54:42.609Z,23.50
2019-06-20T05:57:12.253Z,23.27
2019-06-20T05:59:40.720Z,23.20
2019-06-20T06:02:09.175Z,22.48
2019-06-20T06:04:37.725Z,22.48
2019-06-20T06:07:06.234Z,22.27
2019-06-20T06:09:34.736Z,21.48
2019-06-20T06:12:03.218Z,21.15
2019-06-20T06:14:31.693Z,20.50
2019-06-20T06:17:00.214Z,20.68
2019-06-20T06:19:28.655Z,18.67
2019-06-20T06:21:57.092Z,20.72
2019-06-20T06:24:25.635Z,20.23
2019-06-20T06:26:54.069Z,18.52
2019-06-20T06:29:22.527Z,18.73
2019-06-20T06:31:50.979Z,17.87
2019-06-20T06:34:21.950Z,17.70
2019-06-20T06:36:49.619Z,17.82
2019-06-20T06:39:18.123Z,18.27
2019-06-20T06:41:47.586Z,17.32
2019-06-20T06:44:16.039Z,18.00
2019-06-20T06:46:53.234Z,18.17
2019-06-20T06:49:14.685Z,18.92
2019-06-20T06:51:43.186Z,19.17
2019-06-20T06:54:11.681Z,18.90
2019-06-20T06:56:40.134Z,18.75
2019-06-20T06:59:08.579Z,17.57
2019-06-20T07:01:37.020Z,17.00
2019-06-20T07:04:05.473Z,16.00
2019-06-20T07:06:33.919Z,16.48
2019-06-20T07:09:02.962Z,16.23
2019-06-20T07:11:31.388Z,15.63
2019-06-20T07:13:59.847Z,15.35
2019-06-20T07:16:28.297Z,15.93
2019-06-20T07:18:56.743Z,14.85
2019-06-20T07:21:25.217Z,15.25
2019-06-20T07:23:53.737Z,13.78
2019-06-20T07:26:22.192Z,14.43
2019-06-20T07:28:51.597Z,14.03
2019-06-20T07:31:20.156Z,12.33
2019-06-20T07:33:48.610Z,12.55
2019-06-20T07:36:17.127Z,14.10
2019-06-20T07:38:45.584Z,11.15
2019-06-20T07:41:14.034Z,12.18
2019-06-20T07:43:42.483Z,11.12
2019-06-20T07:46:11.012Z,11.80
2019-06-20T07:48:39.456Z,10.40
2019-06-20T07:51:07.899Z,11.65
2019-06-20T07:53:36.348Z,11.70
2019-06-20T07:56:04.789Z,10.93
2019-06-20T07:58:33.244Z,10.10
2019-06-20T08:01:01.735Z,10.63
2019-06-20T08:03:30.364Z,9.50
2019-06-20T08:05:58.874Z,10.10
2019-06-20T08:08:27.323Z,10.48
2019-06-20T08:10:55.776Z,10.25
2019-06-20T08:13:24.230Z,8.80
2019-06-20T08:15:52.698Z,11.00
2019-06-20T08:18:21.127Z,10.25
2019-06-20T08:20:49.577Z,10.75
2019-06-20T08:23:18.020Z,10.72
2019-06-20T08:25:46.481Z,9.48
2019-06-20T08:28:14.920Z,9.93
2019-06-20T08:30:46.407Z,10.45
2019-06-20T08:33:14.862Z,10.03
2019-06-20T08:35:43.316Z,10.58
2019-06-20T08:38:11.751Z,10.10
2019-06-20T08:40:41.367Z,9.23
2019-06-20T08:43:10.200Z,10.28
2019-06-20T08:45:39.879Z,10.10
2019-06-20T08:48:08.424Z,9.28
2019-06-20T08:50:37.112Z,10.05
2019-06-20T08:53:06.012Z,9.50
2019-06-20T08:55:34.977Z,8.60
2019-06-20T08:58:05.407Z,9.83
2019-06-20T09:00:36.173Z,10.35
2019-06-20T09:03:06.413Z,9.55
2019-06-20T09:05:36.560Z,10.10
2019-06-20T09:08:06.720Z,9.73
2019-06-20T09:10:40.403Z,10.00
2019-06-20T09:13:10.403Z,9.90
2019-06-20T09:15:39.261Z,9.68
2019-06-20T09:18:08.386Z,10.88
2019-06-20T09:20:37.258Z,9.60
2019-06-20T09:23:05.854Z,8.78
2019-06-20T09:25:35.517Z,9.68
2019-06-20T09:28:05.677Z,10.25
2019-06-20T09:30:36.793Z,11.43
2019-06-20T09:33:05.652Z,11.28
2019-06-20T09:35:34.171Z,11.90
2019-06-20T09:38:03.444Z,12.50
2019-06-20T09:40:32.086Z,12.70
2019-06-20T09:43:00.556Z,13.90
2019-06-20T09:45:29.060Z,14.30
2019-06-20T09:47:58.262Z,13.43
2019-06-20T09:50:27.197Z,12.88
2019-06-20T09:52:56.613Z,13.98
2019-06-20T09:55:25.883Z,15.15
2019-06-20T09:57:58.114Z,16.25
2019-06-20T10:00:30.094Z,15.60
2019-06-20T10:02:58.601Z,16.48
2019-06-20T10:05:27.277Z,18.77
2019-06-20T10:07:56.744Z,19.62
2019-06-20T10:10:29.504Z,20.15
2019-06-20T10:12:58.612Z,19.17
2019-06-20T10:15:29.802Z,19.98
2019-06-20T10:17:58.823Z,21.57
2019-06-20T10:20:27.679Z,20.35
2019-06-20T10:22:57.452Z,22.00
2019-06-20T10:25:26.403Z,22.20
2019-06-20T10:27:54.845Z,23.07
2019-06-20T10:30:25.311Z,22.10
2019-06-20T10:32:55.457Z,24.85
2019-06-20T10:35:24.005Z,25.20
2019-06-20T10:37:53.058Z,24.00
2019-06-20T10:40:22.363Z,26.30
2019-06-20T10:42:50.804Z,24.65
2019-06-20T10:45:21.566Z,24.57
2019-06-20T10:47:50.956Z,26.00
2019-06-20T10:50:20.507Z,26.57
2019-06-20T10:52:50.065Z,25.62
2019-06-20T10:55:19.533Z,26.77
2019-06-20T10:57:49.855Z,26.52
2019-06-20T11:00:30.325Z,27.50
2019-06-20T11:02:49.388Z,26.48
2019-06-20T11:05:18.097Z,27.73
2019-06-20T11:07:47.624Z,22.82
2019-06-20T11:10:17.278Z,23.42
2019-06-20T11:12:52.317Z,18.85
2019-06-20T11:15:17.826Z,20.15
2019-06-20T11:17:48.960Z,18.25
2019-06-20T11:20:19.322Z,15.80
2019-06-20T11:22:50.207Z,14.40
2019-06-20T11:25:19.700Z,11.95
2019-06-20T11:27:48.790Z,11.93
2019-06-20T11:30:25.885Z,11.90
2019-06-20T11:32:56.351Z,10.93
2019-06-20T11:35:24.806Z,9.70
2019-06-20T11:37:53.248Z,9.13
2019-06-20T11:40:21.921Z,8.38
2019-06-20T11:42:50.355Z,9.48
2019-06-20T11:45:18.912Z,10.35
2019-06-20T11:47:47.646Z,12.00
2019-06-20T11:50:16.926Z,10.58
2019-06-20T11:52:45.853Z,12.90
2019-06-20T11:55:33.943Z,14.90
2019-06-20T11:58:02.543Z,15.60
2019-06-20T12:00:31.123Z,16.05
2019-06-20T12:03:00.973Z,15.30
2019-06-20T12:05:29.437Z,15.15
2019-06-20T12:07:58.236Z,15.58
2019-06-20T12:10:26.691Z,15.78
2019-06-20T12:12:55.412Z,16.32
2019-06-20T12:15:24.511Z,15.93
2019-06-20T12:17:53.045Z,17.25
2019-06-20T12:20:23.409Z,15.55
2019-06-20T12:22:51.845Z,16.95
2019-06-20T12:25:20.839Z,16.23
2019-06-20T12:27:49.779Z,16.15
2019-06-20T12:30:19.954Z,16.00
2019-06-20T12:32:49.363Z,14.98
2019-06-20T12:35:18.233Z,15.25
2019-06-20T12:37:47.861Z,14.55
2019-06-20T12:40:17.151Z,14.90
2019-06-20T12:42:46.744Z,13.38
2019-06-20T12:45:16.358Z,12.03
2019-06-20T12:47:46.349Z,13.08
2019-06-20T12:50:16.005Z,11.15
2019-06-20T12:52:45.725Z,10.85
2019-06-20T12:55:14.855Z,11.93
2019-06-20T12:57:44.225Z,10.58
2019-06-20T13:00:14.603Z,11.68
2019-06-20T13:02:43.730Z,11.90
2019-06-20T13:05:13.283Z,9.68
2019-06-20T13:07:42.404Z,9.30
2019-06-20T13:10:11.463Z,9.33
2019-06-20T13:12:41.439Z,9.83
2019-06-20T13:15:10.428Z,9.63
2019-06-20T13:17:39.938Z,9.83
2019-06-20T13:20:09.171Z,9.18
2019-06-20T13:22:39.079Z,8.05
2019-06-20T13:25:08.317Z,7.35
2019-06-20T13:27:39.051Z,8.43
2019-06-20T13:30:10.776Z,8.95
2019-06-20T13:32:40.195Z,7.30
2019-06-20T13:35:09.925Z,7.05
2019-06-20T13:37:39.872Z,7.15
2019-06-20T13:40:12.471Z,7.47
2019-06-20T13:42:43.879Z,7.00
2019-06-20T13:45:15.296Z,6.87
2019-06-20T13:47:43.744Z,6.35
2019-06-20T13:50:12.338Z,6.25
2019-06-20T13:52:43.548Z,7.20
2019-06-20T13:55:23.392Z,6.50
2019-06-20T13:57:51.900Z,7.22
2019-06-20T14:00:22.802Z,7.20
2019-06-20T14:02:51.765Z,6.40
2019-06-20T14:05:20.583Z,6.45
2019-06-20T14:07:53.848Z,6.50
2019-06-20T14:10:24.743Z,7.20
2019-06-20T14:12:53.333Z,9.30
2019-06-20T14:15:22.920Z,9.23
2019-06-20T14:17:51.438Z,9.00
2019-06-20T14:20:20.052Z,9.83
2019-06-20T14:22:49.434Z,8.45
2019-06-20T14:25:18.715Z,8.68
2019-06-20T14:27:48.744Z,8.33
2019-06-20T14:30:18.012Z,8.53
2019-06-20T14:32:49.325Z,7.83
2019-06-20T14:35:18.744Z,8.48
2019-06-20T14:37:47.867Z,8.83
2019-06-20T14:40:18.763Z,8.35
2019-06-20T14:42:47.847Z,8.10
2019-06-20T14:45:17.432Z,8.88
2019-06-20T14:47:45.883Z,8.93
2019-06-20T14:50:15.175Z,8.73
2019-06-20T14:52:44.555Z,8.53
2019-06-20T14:55:14.100Z,9.33
2019-06-20T14:57:44.658Z,9.20
2019-06-20T15:00:14.611Z,9.58
2019-06-20T15:02:45.104Z,9.38
2019-06-20T15:05:17.856Z,8.85
2019-06-20T15:07:47.410Z,8.95
2019-06-20T15:10:17.042Z,9.18
2019-06-20T15:12:46.418Z,8.45
2019-06-20T15:15:17.518Z,8.18
2019-06-20T15:17:48.814Z,7.55
2019-06-20T15:20:16.468Z,7.55
2019-06-20T15:22:46.789Z,7.47
2019-06-20T15:25:15.983Z,7.28
2019-06-20T15:27:47.236Z,7.03
2019-06-20T15:30:15.042Z,6.20
2019-06-20T15:32:55.327Z,6.87
2019-06-20T15:35:13.732Z,5.97
2019-06-20T15:37:42.253Z,6.53
2019-06-20T15:40:11.059Z,6.60
2019-06-20T15:42:39.566Z,6.35
2019-06-20T15:45:09.933Z,6.85
2019-06-20T15:47:38.496Z,7.92
2019-06-20T15:50:09.360Z,7.87
2019-06-20T15:52:37.953Z,7.60
2019-06-20T15:55:06.861Z,8.95
2019-06-20T15:57:35.404Z,8.95
2019-06-20T16:00:07.213Z,8.63
2019-06-20T16:02:35.648Z,8.03
2019-06-20T16:05:08.998Z,7.42
2019-06-20T16:07:37.730Z,7.03
2019-06-20T16:10:08.064Z,6.53
2019-06-20T16:12:36.514Z,7.75
2019-06-20T16:15:07.391Z,6.72
2019-06-20T16:17:37.477Z,6.37
2019-06-20T16:20:06.469Z,5.28
2019-06-20T16:22:47.325Z,4.90
2019-06-20T16:25:16.058Z,4.70
2019-06-20T16:27:44.561Z,5.03
2019-06-20T16:30:13.247Z,5.00
2019-06-20T16:32:41.762Z,5.40
2019-06-20T16:35:10.352Z,3.40
2019-06-20T16:37:38.787Z,3.80
2019-06-20T16:40:08.781Z,4.40
2019-06-20T16:42:37.217Z,3.92
2019-06-20T16:45:07.077Z,3.77
2019-06-20T16:47:35.508Z,4.03
2019-06-20T16:50:06.079Z,3.92
2019-06-20T16:52:34.671Z,3.95
2019-06-20T16:55:03.465Z,3.52
2019-06-20T16:57:31.997Z,3.00
2019-06-20T17:00:00.506Z,3.40
2019-06-20T17:02:29.042Z,3.33
2019-06-20T17:04:57.620Z,3.10
2019-06-20T17:07:26.092Z,3.47
2019-06-20T17:09:54.610Z,3.50
2019-06-20T17:12:23.116Z,3.83
2019-06-20T17:14:51.564Z,3.40
2019-06-20T17:17:20.074Z,3.65
2019-06-20T17:19:48.603Z,3.77
2019-06-20T17:22:17.055Z,3.75
2019-06-20T17:24:45.491Z,3.37
2019-06-20T17:27:13.927Z,3.58
2019-06-20T17:29:42.393Z,4.28
2019-06-20T17:32:10.915Z,3.60
2019-06-20T17:34:39.367Z,3.72
2019-06-20T17:37:07.817Z,3.92
2019-06-20T17:39:36.357Z,4.33
2019-06-20T17:42:04.841Z,4.00
2019-06-20T17:44:33.339Z,3.87
2019-06-20T17:47:01.771Z,3.95
2019-06-20T17:49:30.721Z,3.62
2019-06-20T17:51:59.227Z,3.92
2019-06-20T17:54:27.670Z,3.85
2019-06-20T17:56:56.103Z,4.17
2019-06-20T17:59:24.549Z,4.05
2019-06-20T18:01:53.737Z,4.35
2019-06-20T18:04:22.288Z,4.72
2019-06-20T18:06:50.740Z,7.17
2019-06-20T18:09:19.187Z,5.97
2019-06-20T18:11:48.301Z,5.90
2019-06-20T18:14:22.034Z,4.55
2019-06-20T18:16:50.559Z,4.45
2019-06-20T18:19:19.115Z,4.08
2019-06-20T18:21:47.554Z,3.67
2019-06-20T18:24:16.002Z,4.60
2019-06-20T18:26:44.519Z,4.17
2019-06-20T18:29:13.046Z,3.87
2019-06-20T18:31:42.475Z,4.53
2019-06-20T18:34:11.103Z,4.30
2019-06-20T18:36:39.618Z,4.12
2019-06-20T18:39:08.900Z,4.08
2019-06-20T18:41:37.360Z,4.05
2019-06-20T18:44:05.816Z,4.87
2019-06-20T18:46:34.323Z,4.55
2019-06-20T18:49:02.768Z,4.78
2019-06-20T18:51:31.289Z,4.60
2019-06-20T18:53:59.853Z,5.08
2019-06-20T18:56:28.358Z,4.45
2019-06-20T18:58:58.350Z,4.80
2019-06-20T19:01:26.801Z,4.83
2019-06-20T19:03:55.261Z,4.35
2019-06-20T19:06:35.627Z,5.10
2019-06-20T19:08:53.953Z,5.45
2019-06-20T19:11:22.478Z,5.15
2019-06-20T19:13:50.946Z,5.33
2019-06-20T19:16:19.433Z,5.00
2019-06-20T19:18:47.923Z,5.00
2019-06-20T19:21:16.428Z,4.75
2019-06-20T19:23:47.011Z,4.78
2019-06-20T19:26:15.556Z,5.25
2019-06-20T19:28:44.061Z,4.87
2019-06-20T19:31:12.532Z,5.67
2019-06-20T19:33:40.967Z,4.65
2019-06-20T19:36:09.453Z,4.87
2019-06-20T19:38:37.961Z,4.87
2019-06-20T19:41:06.408Z,5.25
2019-06-20T19:43:37.404Z,5.08
2019-06-20T19:46:05.907Z,4.97
2019-06-20T19:48:36.674Z,5.30
2019-06-20T19:51:04.963Z,5.40
2019-06-20T19:53:33.470Z,5.08
2019-06-20T19:56:02.136Z,5.25
2019-06-20T19:58:30.593Z,4.65
2019-06-20T20:00:59.035Z,5.00
2019-06-20T20:03:27.476Z,4.90
2019-06-20T20:05:58.384Z,5.00
2019-06-20T20:08:26.996Z,4.78
2019-06-20T20:10:55.454Z,5.08
2019-06-20T20:13:25.843Z,4.97
2019-06-20T20:15:54.339Z,4.95
2019-06-20T20:18:22.915Z,5.53
2019-06-20T20:20:51.599Z,5.08
2019-06-20T20:23:20.051Z,4.70
2019-06-20T20:25:48.623Z,4.67
2019-06-20T20:28:17.066Z,5.65
2019-06-20T20:30:45.883Z,5.72
2019-06-20T20:33:14.340Z,5.40
2019-06-20T20:35:44.603Z,5.70
2019-06-20T20:38:14.608Z,5.45
2019-06-20T20:40:43.427Z,5.25
2019-06-20T20:43:11.942Z,5.05
2019-06-20T20:45:40.647Z,5.22
2019-06-20T20:48:11.404Z,5.35
2019-06-20T20:50:39.853Z,5.78
2019-06-20T20:53:08.363Z,5.75
2019-06-20T20:55:36.803Z,5.65
2019-06-20T20:58:05.330Z,6.10
2019-06-20T21:00:42.348Z,5.70
2019-06-20T21:03:10.783Z,6.20
2019-06-20T21:05:50.983Z,6.55
2019-06-20T21:08:09.411Z,5.50
2019-06-20T21:10:37.869Z,5.67
2019-06-20T21:13:06.307Z,5.78
2019-06-20T21:15:34.751Z,6.15
2019-06-20T21:18:04.037Z,6.50
2019-06-20T21:20:32.552Z,6.08
2019-06-20T21:23:01.008Z,6.08
2019-06-20T21:25:32.147Z,7.60
2019-06-20T21:27:59.644Z,7.35
2019-06-20T21:30:28.084Z,7.42
2019-06-20T21:32:56.547Z,7.05
2019-06-20T21:35:24.969Z,6.87
2019-06-20T21:37:53.510Z,7.25
2019-06-20T21:40:25.726Z,6.83
2019-06-20T21:42:54.246Z,6.58
2019-06-20T21:45:22.845Z,6.83
2019-06-20T21:47:51.387Z,7.37
2019-06-20T21:50:21.087Z,7.33
2019-06-20T21:52:49.519Z,7.80
2019-06-20T21:55:19.287Z,7.08
2019-06-20T21:57:47.723Z,6.30
2019-06-20T22:00:28.293Z,6.47
2019-06-20T22:02:56.884Z,6.87
2019-06-20T22:05:25.449Z,6.58
2019-06-20T22:07:53.881Z,6.20
2019-06-20T22:10:22.865Z,7.05
2019-06-20T22:12:51.325Z,6.70
2019-06-20T22:15:22.982Z,6.90
2019-06-20T22:17:55.714Z,6.42
2019-06-20T22:20:24.643Z,7.12
2019-06-20T22:22:56.304Z,7.83
2019-06-20T22:25:24.885Z,7.50
2019-06-20T22:27:56.480Z,8.23
2019-06-20T22:30:42.540Z,8.18
2019-06-20T22:33:11.059Z,8.65
2019-06-20T22:35:39.504Z,8.38
2019-06-20T22:38:07.968Z,8.10
2019-06-20T22:40:36.730Z,7.92
2019-06-20T22:43:05.365Z,8.23
2019-06-20T22:45:33.993Z,7.42
2019-06-20T22:56:16.052Z,7.42
2019-06-20T22:58:44.493Z,8.18
2019-06-20T23:01:13.010Z,7.95
2019-06-20T23:03:41.564Z,8.08
2019-06-20T23:08:45.960Z,7.92
2019-06-20T23:11:14.415Z,7.80
2019-06-20T23:13:43.019Z,7.90
2019-06-20T23:16:11.484Z,7.42
2019-06-20T23:18:39.951Z,7.97
2019-06-20T23:21:08.385Z,8.75
2019-06-20T23:23:36.840Z,9.65
2019-06-20T23:26:06.972Z,9.23
2019-06-20T23:28:35.409Z,9.53
2019-06-20T23:31:04.258Z,10.65
2019-06-20T23:33:32.814Z,10.95
2019-06-20T23:36:01.253Z,9.75
2019-06-20T23:38:29.776Z,10.35
2019-06-20T23:40:58.245Z,8.88
2019-06-20T23:43:26.752Z,8.53
2019-06-20T23:45:55.213Z,9.25
2019-06-20T23:48:23.738Z,9.25
2019-06-20T23:50:54.179Z,9.05
2019-06-20T23:53:23.995Z,7.97
2019-06-20T23:55:52.634Z,9.53
2019-06-20T23:58:21.172Z,8.85
